Avon Heights, Pennsylvania
Current Conditions -  °F | °C
As of 9:58 AM on Monday 24 Nov 2014 (Local Time) from KMUI Reporting Station
Overcast Overcast  
Wind Chill: 18°   Ceiling: 2100
Heat Index: 18°   Visibility: 10mi
Dew Point: 15°   Wind: 10mph
Humidity: 82%   Direction: 210°SSW
Pressure: 29.63"   Gusts: 16mph
Location:  40.2957°N, 76.4189°W
Report Text: KMUI 241458Z AUTO 21009G14KT 170V240 10SM OVC021 18/15 A2963 RMK AO2 SLP036 T01770146 53003 $
Loading
Personal Weather Stations






























Interactive Weather Map New forecast layout! Learn more

10-Day Weather Forecast

Advertisements
Track Severe Weather on mobile